Time;durP1;ratioP1;P1;durP2;ratioP2;P2;SDS_P1;SDS_P2;PMS_P1;PMS_P2;Temp;Humidity;BMP_temperature;BMP_pressure;BME280_temperature;BME280_humidity;BME280_pressure;Samples;Min_cycle;Max_cycle;Signal;HPM_P1;HPM_P2
2022/08/01 00:04:59;;;;;;;1.35;1.10;;;;;;;19.43;100.00;101206.19;20952369;28;20109;-74
2022/08/01 00:15:03;;;;;;;1.52;1.20;;;;;;;19.42;100.00;101215.28;20967631;28;20552;-74
2022/08/01 00:25:05;;;;;;;1.27;0.90;;;;;;;19.33;100.00;101210.72;20978650;28;20527;-74
2022/08/01 00:35:07;;;;;;;1.08;1.00;;;;;;;19.43;100.00;101227.78;20967823;28;20053;-74
2022/08/01 00:45:09;;;;;;;1.02;0.88;;;;;;;19.38;100.00;101221.94;20882182;28;20099;-74
2022/08/01 00:55:12;;;;;;;1.13;1.02;;;;;;;19.40;100.00;101223.53;20881723;28;20045;-74
2022/08/01 01:05:16;;;;;;;1.00;0.87;;;;;;;19.41;100.00;101224.34;20880770;28;20041;-74
2022/08/01 01:15:30;;;;;;;1.00;0.90;;;;;;;19.41;100.00;101232.47;20881421;28;20090;-74
2022/08/01 01:26:13;;;;;;;1.02;0.88;;;;;;;19.40;100.00;101228.91;20928360;28;20056;-74
2022/08/01 01:36:16;;;;;;;1.00;0.80;;;;;;;19.40;100.00;101236.16;20962616;28;20048;-74
2022/08/01 01:46:22;;;;;;;1.25;1.00;;;;;;;19.41;100.00;101240.56;20899878;28;20484;-74
2022/08/01 01:56:24;;;;;;;1.92;1.30;;;;;;;19.39;100.00;101251.50;20877595;28;20136;-74
2022/08/01 02:06:26;;;;;;;1.27;1.17;;;;;;;19.39;100.00;101248.81;20876869;28;20063;-74
2022/08/01 02:16:34;;;;;;;2.13;1.10;;;;;;;19.39;100.00;101258.75;20860040;28;20057;-74
2022/08/01 02:26:39;;;;;;;1.23;0.75;;;;;;;19.35;100.00;101252.78;20989903;28;20052;-74
2022/08/01 02:36:43;;;;;;;1.65;1.05;;;;;;;19.38;100.00;101259.75;20928628;28;20513;-74
2022/08/01 02:46:51;;;;;;;1.60;1.10;;;;;;;19.32;100.00;101252.19;20874365;28;20041;-74
2022/08/01 02:56:55;;;;;;;0.80;0.75;;;;;;;19.17;100.00;101225.59;20883351;28;20663;-74
2022/08/01 03:07:02;;;;;;;0.80;0.80;;;;;;;19.35;100.00;101273.50;20891231;28;20053;-74
2022/08/01 03:17:04;;;;;;;0.82;0.82;;;;;;;19.19;100.00;101258.69;20888954;28;20444;-74
2022/08/01 03:27:06;;;;;;;0.88;0.80;;;;;;;19.20;100.00;101263.09;20925640;28;20405;-74
2022/08/01 03:37:15;;;;;;;0.70;0.70;;;;;;;19.36;100.00;101292.28;20950230;28;20566;-74
2022/08/01 03:47:16;;;;;;;0.70;0.70;;;;;;;19.36;100.00;101295.00;20894249;28;20053;-74
2022/08/01 03:57:19;;;;;;;0.88;0.88;;;;;;;19.36;100.00;101292.28;20886574;28;20049;-73
2022/08/01 04:07:38;;;;;;;0.77;0.75;;;;;;;19.11;100.00;101255.81;20885572;28;20468;-74
2022/08/01 04:17:40;;;;;;;0.77;0.77;;;;;;;19.37;100.00;101301.22;20910877;28;20057;-74
2022/08/01 04:27:44;;;;;;;5.78;1.50;;;;;;;19.43;100.00;101316.88;20908731;28;20052;-73
2022/08/01 04:37:53;;;;;;;6.38;1.27;;;;;;;19.48;100.00;101327.28;20912040;28;20056;-73
2022/08/01 04:47:55;;;;;;;6.63;1.25;;;;;;;19.51;100.00;101344.06;20898203;28;20560;-73
2022/08/01 04:57:57;;;;;;;4.07;1.27;;;;;;;19.51;100.00;101364.81;20916165;28;20512;-74
2022/08/01 05:08:00;;;;;;;1.70;0.98;;;;;;;19.50;100.00;101371.19;20924991;28;20136;-73
2022/08/01 05:18:02;;;;;;;1.67;0.88;;;;;;;19.48;100.00;101382.16;20912866;28;20322;-73
2022/08/01 05:28:03;;;;;;;1.65;1.00;;;;;;;19.45;100.00;101377.03;20948413;28;20051;-73
2022/08/01 05:38:06;;;;;;;2.33;1.00;;;;;;;19.45;100.00;101385.13;20926813;28;20114;-73
2022/08/01 05:48:14;;;;;;;1.98;1.00;;;;;;;19.45;100.00;101392.34;20934648;28;20111;-73
2022/08/01 05:58:15;;;;;;;1.63;0.80;;;;;;;19.44;100.00;101407.69;20917922;28;20044;-73
2022/08/01 06:08:17;;;;;;;1.40;0.82;;;;;;;19.37;100.00;101409.22;20907068;28;20115;-73
2022/08/01 06:18:19;;;;;;;2.33;1.10;;;;;;;19.43;100.00;101411.38;20908840;28;20102;-73
2022/08/01 06:28:21;;;;;;;3.85;1.10;;;;;;;19.43;100.00;101422.19;20919939;28;20064;-73
2022/08/01 06:38:24;;;;;;;2.20;0.90;;;;;;;19.44;100.00;101431.16;20916942;28;20056;-74
2022/08/01 06:48:27;;;;;;;3.72;0.85;;;;;;;19.45;100.00;101441.84;20924746;28;20056;-74
2022/08/01 06:58:29;;;;;;;4.15;1.08;;;;;;;19.46;100.00;101454.34;20916983;28;20209;-74
2022/08/01 07:08:32;;;;;;;8.70;1.50;;;;;;;19.49;100.00;101455.91;20958042;28;20570;-75
2022/08/01 07:18:33;;;;;;;2.08;1.00;;;;;;;19.50;100.00;101461.19;20954360;28;20131;-75
2022/08/01 07:28:35;;;;;;;5.43;1.48;;;;;;;19.52;100.00;101469.13;20947762;28;20467;-74
2022/08/01 07:38:45;;;;;;;3.28;1.00;;;;;;;19.53;100.00;101477.13;20918574;28;20049;-74
2022/08/01 07:48:46;;;;;;;4.40;1.20;;;;;;;19.47;100.00;101472.25;20935833;28;20064;-74
2022/08/01 07:58:48;;;;;;;3.33;1.08;;;;;;;19.55;100.00;101495.88;20918415;28;20032;-74
2022/08/01 08:08:49;;;;;;;2.95;1.20;;;;;;;19.54;100.00;101508.53;20927977;28;20117;-73
2022/08/01 08:18:51;;;;;;;4.07;1.10;;;;;;;19.53;100.00;101514.94;20951540;28;20140;-74
2022/08/01 08:28:52;;;;;;;4.68;1.50;;;;;;;19.54;100.00;101516.63;20945510;28;20044;-74
2022/08/01 08:38:54;;;;;;;3.28;1.30;;;;;;;19.54;100.00;101523.88;20949639;28;20059;-73
2022/08/01 08:48:56;;;;;;;3.20;1.13;;;;;;;19.55;100.00;101529.16;20943804;28;20061;-73
2022/08/01 08:58:59;;;;;;;5.60;1.45;;;;;;;19.56;100.00;101544.38;20935919;28;20053;-74
2022/08/01 09:09:02;;;;;;;2.88;1.20;;;;;;;19.56;100.00;101547.06;20930722;28;20056;-74
2022/08/01 09:19:09;;;;;;;2.58;1.35;;;;;;;19.59;100.00;101566.69;20929969;28;20068;-74
2022/08/01 09:29:33;;;;;;;1.98;1.10;;;;;;;19.61;100.00;101575.53;20922056;28;20055;-73
2022/08/01 09:39:42;;;;;;;2.25;1.30;;;;;;;19.52;100.00;101569.94;20923833;28;20067;-74
2022/08/01 09:49:45;;;;;;;2.75;1.13;;;;;;;19.61;100.00;101572.81;20913372;28;20036;-73
2022/08/01 09:59:57;;;;;;;4.07;1.73;;;;;;;19.60;100.00;101577.34;20936043;28;20049;-74
2022/08/01 10:10:12;;;;;;;3.05;1.35;;;;;;;19.61;100.00;101570.97;20933033;28;20052;-73
2022/08/01 10:20:15;;;;;;;4.68;1.35;;;;;;;19.61;100.00;101570.13;20920769;28;20044;-73
2022/08/01 10:30:31;;;;;;;2.80;1.20;;;;;;;19.62;100.00;101577.25;20913357;28;20657;-73
2022/08/01 10:40:33;;;;;;;3.00;1.33;;;;;;;19.61;100.00;101575.53;20916765;28;20110;-74
2022/08/01 10:50:43;;;;;;;3.38;1.30;;;;;;;19.61;100.00;101578.22;20921558;28;20052;-73
2022/08/01 11:01:28;;;;;;;1.92;1.08;;;;;;;19.61;100.00;101575.53;20934337;28;20045;-74
2022/08/01 11:11:32;;;;;;;2.10;1.10;;;;;;;19.62;100.00;101582.63;20933511;28;20527;-73
2022/08/01 11:21:54;;;;;;;3.25;1.30;;;;;;;19.62;100.00;101582.63;20945419;28;20443;-74
2022/08/01 11:32:26;;;;;;;2.50;1.20;;;;;;;19.62;100.00;101585.34;20943594;28;20082;-74
2022/08/01 11:42:27;;;;;;;2.63;1.17;;;;;;;19.60;99.98;101584.63;20930851;28;20068;-73
2022/08/01 11:52:32;;;;;;;2.95;1.52;;;;;;;19.63;99.48;101597.84;20924527;28;20454;-74
2022/08/01 12:02:35;;;;;;;2.13;1.00;;;;;;;19.63;99.14;101584.34;20922851;28;20079;-74
2022/08/01 12:12:43;;;;;;;2.17;1.00;;;;;;;19.63;98.71;101603.25;20909009;28;20060;-73
2022/08/01 12:22:44;;;;;;;3.05;0.93;;;;;;;19.64;98.27;101594.16;20932908;28;20098;-74
2022/08/01 12:32:47;;;;;;;2.60;0.90;;;;;;;19.65;97.94;101603.97;20934248;28;20053;-73
2022/08/01 12:42:51;;;;;;;2.60;1.10;;;;;;;19.64;97.44;101603.13;20920627;28;20098;-73
2022/08/01 12:52:52;;;;;;;2.40;0.90;;;;;;;19.63;96.83;101590.59;20919522;28;20053;-73
2022/08/01 13:03:06;;;;;;;2.88;0.93;;;;;;;19.63;96.39;101589.75;20921028;28;20509;-74
2022/08/01 13:13:09;;;;;;;2.00;0.90;;;;;;;19.65;96.09;101595.88;20903754;28;20045;-73
2022/08/01 13:23:22;;;;;;;3.67;1.30;;;;;;;19.65;95.80;101598.59;20914835;28;20128;-73
2022/08/01 13:33:46;;;;;;;2.15;0.90;;;;;;;19.65;95.56;101598.59;20918339;28;20056;-75
2022/08/01 13:44:00;;;;;;;3.55;1.40;;;;;;;19.64;95.18;101584.19;20906257;28;20059;-74
2022/08/01 13:54:03;;;;;;;3.33;0.93;;;;;;;19.63;95.01;101589.75;20913405;28;20049;-74
2022/08/01 14:04:05;;;;;;;2.08;1.10;;;;;;;19.61;94.83;101591.72;20914792;28;20048;-74
2022/08/01 14:14:07;;;;;;;3.20;0.90;;;;;;;19.60;94.53;101580.06;20928484;28;20057;-74
2022/08/01 14:24:09;;;;;;;1.98;0.90;;;;;;;19.59;93.76;101580.22;20911120;28;20055;-75
2022/08/01 14:34:12;;;;;;;1.95;0.73;;;;;;;19.55;93.36;101555.28;20903524;28;20091;-74
2022/08/01 14:44:14;;;;;;;2.45;0.88;;;;;;;19.58;93.41;101564.97;20900632;28;20138;-75
2022/08/01 14:54:15;;;;;;;3.25;1.10;;;;;;;19.56;93.18;101557.88;20929637;28;20131;-74
2022/08/01 15:04:27;;;;;;;3.17;0.70;;;;;;;19.55;92.84;101583.16;20922622;28;20602;-74
2022/08/01 15:14:47;;;;;;;2.22;0.80;;;;;;;19.55;92.86;101568.78;20914743;28;20045;-74
2022/08/01 15:24:51;;;;;;;2.20;0.77;;;;;;;19.55;92.79;101577.75;20907167;28;20041;-75
2022/08/01 15:34:57;;;;;;;3.03;0.98;;;;;;;19.55;92.36;101566.09;20894027;28;20079;-74
2022/08/01 15:44:59;;;;;;;3.28;0.75;;;;;;;19.55;92.38;101572.38;20894632;28;20765;-74
2022/08/01 15:55:01;;;;;;;1.88;0.88;;;;;;;19.42;91.94;101550.06;20873319;28;20499;-75
2022/08/01 16:05:03;;;;;;;1.88;0.90;;;;;;;19.55;91.42;101576.91;20895099;28;20094;-74
2022/08/01 16:15:05;;;;;;;2.28;0.82;;;;;;;19.45;91.10;101563.34;20894932;28;20049;-73
2022/08/01 16:25:07;;;;;;;2.65;0.77;;;;;;;19.55;90.98;101576.91;20885230;28;20068;-74
2022/08/01 16:35:09;;;;;;;1.92;0.90;;;;;;;19.54;90.84;101573.34;20872955;28;20048;-75
2022/08/01 16:45:14;;;;;;;3.87;1.10;;;;;;;19.41;90.54;101570.84;20877681;28;20063;-75
2022/08/01 16:55:16;;;;;;;4.97;1.33;;;;;;;19.54;90.45;101592.25;20874096;28;20303;-74
2022/08/01 17:05:19;;;;;;;5.57;1.75;;;;;;;19.46;90.27;101578.56;20869207;28;20417;-74
2022/08/01 17:15:20;;;;;;;4.70;1.75;;;;;;;19.55;90.21;101598.50;20868208;28;20499;-74
2022/08/01 17:25:23;;;;;;;5.93;1.65;;;;;;;19.54;91.74;101605.75;20866994;28;20569;-75
2022/08/01 17:35:27;;;;;;;7.10;1.77;;;;;;;19.50;92.49;101588.09;20897972;28;20131;-74
2022/08/01 17:45:28;;;;;;;4.07;1.40;;;;;;;19.47;92.55;101601.88;20875998;28;20595;-75
2022/08/01 17:55:30;;;;;;;3.10;1.33;;;;;;;19.45;92.65;101609.25;20866744;28;20057;-74
2022/08/01 18:05:52;;;;;;;3.63;1.30;;;;;;;19.42;92.67;101613.06;20869210;28;20060;-74
2022/08/01 18:15:53;;;;;;;5.78;1.58;;;;;;;19.42;93.13;101625.69;20891603;28;20061;-77
2022/08/01 18:26:00;;;;;;;4.88;1.67;;;;;;;19.41;93.06;101623.97;20933036;28;20048;-76
2022/08/01 18:36:03;;;;;;;4.32;1.40;;;;;;;19.42;92.51;101626.56;20950811;28;20613;-77
2022/08/01 18:46:05;;;;;;;4.15;1.40;;;;;;;19.42;92.36;101637.34;20942086;28;20456;-77
2022/08/01 18:56:10;;;;;;;4.10;1.83;;;;;;;19.38;92.27;101632.31;20944034;28;20060;-77
2022/08/01 19:06:12;;;;;;;3.22;1.52;;;;;;;19.28;92.19;101614.19;20924176;28;20040;-76
2022/08/01 19:16:15;;;;;;;3.22;1.40;;;;;;;19.41;91.59;101635.63;20934826;28;20098;-77
2022/08/01 19:26:19;;;;;;;3.78;1.33;;;;;;;19.33;91.09;101631.84;20929057;28;20122;-77
2022/08/01 19:36:21;;;;;;;3.47;1.57;;;;;;;19.41;90.70;101654.53;20934763;28;20045;-77
2022/08/01 19:46:23;;;;;;;1.90;1.10;;;;;;;19.40;90.19;101652.81;20927860;28;20064;-76
2022/08/01 19:56:25;;;;;;;3.75;1.42;;;;;;;19.39;89.82;101672.72;20943255;28;20049;-77
2022/08/01 20:06:28;;;;;;;3.80;1.25;;;;;;;19.38;89.47;101673.69;20931778;28;20061;-77
2022/08/01 20:16:33;;;;;;;2.40;1.10;;;;;;;19.37;89.48;101676.50;20939353;28;20045;-77
2022/08/01 20:26:35;;;;;;;1.38;0.80;;;;;;;19.38;89.21;101680.94;20941891;28;20451;-76
2022/08/01 20:36:37;;;;;;;2.92;1.25;;;;;;;19.36;89.18;101677.50;20917382;28;20645;-77
2022/08/01 20:46:39;;;;;;;1.92;0.90;;;;;;;19.35;89.03;101673.94;20923244;28;20049;-77
2022/08/01 20:56:57;;;;;;;1.33;0.90;;;;;;;19.35;88.89;101667.69;20925118;28;20058;-77
2022/08/01 21:07:11;;;;;;;1.83;0.80;;;;;;;19.33;88.69;101670.53;20934749;28;20048;-77
2022/08/01 21:17:48;;;;;;;2.30;1.10;;;;;;;19.34;88.58;101663.25;20947445;28;20497;-77
2022/08/01 21:27:51;;;;;;;1.42;1.05;;;;;;;19.17;88.55;101621.47;20924084;28;20087;-77
2022/08/01 21:37:52;;;;;;;1.88;1.23;;;;;;;19.33;88.23;101669.66;20920236;28;20101;-77
2022/08/01 21:47:56;;;;;;;1.73;0.93;;;;;;;19.31;88.22;101674.31;20921155;28;20055;-77
2022/08/01 21:58:27;;;;;;;1.95;1.27;;;;;;;19.28;88.14;101670.91;20931747;28;20052;-77
2022/08/01 22:08:35;;;;;;;3.53;1.23;;;;;;;19.12;87.92;101652.41;20915459;28;20053;-77
2022/08/01 22:18:37;;;;;;;1.30;0.70;;;;;;;19.28;87.79;101679.00;20919785;28;20125;-77
2022/08/01 22:28:39;;;;;;;2.60;1.13;;;;;;;19.27;87.37;101666.47;20909967;28;20135;-77
2022/08/01 22:38:41;;;;;;;1.70;0.88;;;;;;;19.26;87.29;101659.38;20923449;28;20559;-77
2022/08/01 22:48:52;;;;;;;2.30;0.95;;;;;;;19.25;87.06;101670.31;20925382;28;20053;-77
2022/08/01 22:58:56;;;;;;;2.60;0.93;;;;;;;19.26;86.88;101674.72;20901227;28;20072;-77
2022/08/01 23:08:59;;;;;;;1.33;0.90;;;;;;;19.24;86.62;101661.34;20922628;28;20044;-77
2022/08/01 23:19:01;;;;;;;1.35;0.90;;;;;;;19.23;86.37;101669.56;20932136;28;20052;-77
2022/08/01 23:29:02;;;;;;;2.17;0.90;;;;;;;19.22;86.22;101663.31;20929416;28;20048;-77
2022/08/01 23:39:04;;;;;;;2.08;1.00;;;;;;;19.23;85.95;101661.47;20931664;28;20076;-77
2022/08/01 23:49:05;;;;;;;1.25;0.90;;;;;;;19.22;85.85;101651.63;20924465;28;20458;-77
2022/08/01 23:59:07;;;;;;;1.10;0.90;;;;;;;19.21;85.83;101633.72;20938416;28;20052;-77
